KIAH/IAH METAR and TAF weather

Enter ICAO airport designator
Station Type Date Time Source
KIAH METAR 2021/01/16 02:53 UTC NOAA

KIAH 160253Z 26004KT 10SM CLR 08/M08 A3009 RMK AO2 SLP190 T00831078 51017 $


Station Type Date Time Source
KIAH Decoded METAR 2021/01/16 02:53 UTC NOAA

HOUSTON INTERCONTINENTAL, TX, United States (KIAH) 30-00N 095-22W 36M
Jan 15, 2021 - 09:53 PM EST / 2021.01.16 0253 UTC
Wind: from the W (260 degrees) at 5 MPH (4 KT):0
Visibility: 10 mile(s):0
Sky conditions: clear
Temperature: 46.9 F (8.3 C)
Dew Point: 18.0 F (-7.8 C)
Relative Humidity: 31%
Pressure (altimeter): 30.09 in. Hg (1018 hPa)
Pressure tendency: 0.05 inches (1.7 hPa) higher than three hours ago
ob: KIAH 160253Z 26004KT 10SM CLR 08/M08 A3009 RMK AO2 SLP190 T00831078 51017
cycle: 3

Station Type Date Time Source
KIAH TAF 2021/01/16 03:12 UTC NOAA

TAF
AMD KIAH 160309Z 1603/1706 29006KT P6SM SKC
FM170000 VRB02KT P6SM SKC

Example: see airport list